KTHA/THA METAR and TAF weather

Enter ICAO airport designator
Station Type Date Time Source
KTHA METAR 2021/02/27 08:55 UTC NOAA

KTHA 270855Z AUTO 21011G19KT 10SM OVC012 18/16 A2998 RMK A01


Station Type Date Time Source
KTHA Decoded METAR 2021/02/27 08:55 UTC NOAA

Station name not available
Feb 27, 2021 - 03:55 AM EST / 2021.02.27 0855 UTC
Wind: from the SSW (210 degrees) at 13 MPH (11 KT) gusting to 22 MPH (19 KT):0
Visibility: 10 mile(s):0
Sky conditions: overcast
Temperature: 64 F (18 C)
Dew Point: 60 F (16 C)
Relative Humidity: 88%
Pressure (altimeter): 29.98 in. Hg (1015 hPa)
ob: KTHA 270855Z AUTO 21011G19KT 10SM OVC012 18/16 A2998 RMK A01
cycle: 9

Station Type Date Time Source
KTHA TAF UTC NOAA

Error!

Example: see airport list